createdAt,value
2018-09-10T00:01:12.880Z,17.00
2018-09-10T00:03:48.629Z,17.00
2018-09-10T00:06:24.103Z,17.00
2018-09-10T00:08:59.634Z,16.90
2018-09-10T00:11:35.081Z,16.80
2018-09-10T00:14:10.655Z,16.80
2018-09-10T00:16:45.996Z,16.70
2018-09-10T00:19:21.744Z,16.70
2018-09-10T00:21:57.530Z,16.60
2018-09-10T00:24:33.149Z,16.70
2018-09-10T00:27:08.336Z,16.70
2018-09-10T00:29:43.735Z,16.80
2018-09-10T00:32:19.070Z,16.80
2018-09-10T00:34:54.576Z,16.80
2018-09-10T00:37:30.028Z,16.90
2018-09-10T00:40:06.317Z,16.90
2018-09-10T00:42:41.729Z,17.00
2018-09-10T00:45:17.309Z,17.00
2018-09-10T00:47:52.713Z,16.90
2018-09-10T00:50:28.191Z,16.90
2018-09-10T00:53:03.725Z,16.90
2018-09-10T00:55:39.176Z,16.80
2018-09-10T00:58:14.581Z,16.80
2018-09-10T01:00:50.230Z,16.80
2018-09-10T01:03:25.892Z,16.80
2018-09-10T01:06:01.571Z,16.80
2018-09-10T01:08:36.857Z,16.80
2018-09-10T01:11:12.424Z,16.80
2018-09-10T01:13:47.971Z,16.80
2018-09-10T01:16:23.362Z,16.80
2018-09-10T01:18:58.684Z,16.80
2018-09-10T01:21:34.238Z,16.80
2018-09-10T01:24:09.624Z,16.80
2018-09-10T01:26:45.161Z,16.80
2018-09-10T01:29:20.497Z,16.70
2018-09-10T01:31:56.134Z,16.70
2018-09-10T01:34:37.032Z,16.60
2018-09-10T01:37:12.412Z,16.60
2018-09-10T01:39:47.817Z,16.50
2018-09-10T01:42:23.306Z,16.50
2018-09-10T01:44:58.969Z,16.50
2018-09-10T01:47:34.536Z,16.50
2018-09-10T01:50:09.701Z,16.40
2018-09-10T01:52:45.229Z,16.40
2018-09-10T01:55:20.627Z,16.40
2018-09-10T01:57:56.312Z,16.40
2018-09-10T02:00:31.637Z,16.30
2018-09-10T02:03:07.166Z,16.40
2018-09-10T02:05:42.736Z,16.40
2018-09-10T02:08:18.307Z,16.40
2018-09-10T02:10:53.777Z,16.50
2018-09-10T02:13:29.289Z,16.50
2018-09-10T02:16:04.853Z,16.60
2018-09-10T02:18:40.585Z,16.60
2018-09-10T02:21:16.433Z,16.60
2018-09-10T02:23:51.888Z,16.60
2018-09-10T02:26:27.174Z,16.60
2018-09-10T02:29:02.801Z,16.60
2018-09-10T02:31:38.269Z,16.60
2018-09-10T02:34:13.897Z,16.60
2018-09-10T02:36:49.269Z,16.60
2018-09-10T02:39:24.699Z,16.70
2018-09-10T02:42:00.164Z,16.60
2018-09-10T02:44:35.591Z,16.60
2018-09-10T02:47:10.922Z,16.60
2018-09-10T02:49:46.536Z,16.60
2018-09-10T02:52:21.795Z,16.60
2018-09-10T02:54:57.342Z,16.60
2018-09-10T02:57:32.864Z,16.60
2018-09-10T03:00:09.416Z,16.60
2018-09-10T03:02:44.684Z,16.60
2018-09-10T03:05:20.365Z,16.60
2018-09-10T03:07:55.772Z,16.60
2018-09-10T03:10:31.441Z,16.60
2018-09-10T03:13:06.903Z,16.60
2018-09-10T03:15:42.485Z,16.60
2018-09-10T03:18:17.692Z,16.60
2018-09-10T03:20:53.122Z,16.60
2018-09-10T03:23:28.572Z,16.70
2018-09-10T03:26:03.954Z,16.70
2018-09-10T03:28:39.428Z,16.70
2018-09-10T03:31:14.953Z,16.70
2018-09-10T03:33:50.402Z,16.60
2018-09-10T03:36:25.918Z,16.60
2018-09-10T03:39:01.162Z,16.60
2018-09-10T03:41:36.734Z,16.60
2018-09-10T03:44:12.184Z,16.50
2018-09-10T03:46:47.559Z,16.50
2018-09-10T03:49:23.065Z,16.50
2018-09-10T03:51:58.674Z,16.60
2018-09-10T03:54:34.145Z,16.50
2018-09-10T03:57:09.573Z,16.60
2018-09-10T03:59:44.765Z,16.50
2018-09-10T04:02:20.326Z,16.40
2018-09-10T04:04:55.728Z,16.40
2018-09-10T04:07:31.117Z,16.40
2018-09-10T04:10:06.610Z,16.40
2018-09-10T04:12:42.039Z,16.40
2018-09-10T04:15:17.468Z,16.30
2018-09-10T04:17:53.048Z,16.40
2018-09-10T04:20:28.541Z,16.40
2018-09-10T04:23:04.232Z,16.40
2018-09-10T04:25:39.636Z,16.40
2018-09-10T04:28:15.073Z,16.50
2018-09-10T04:30:50.577Z,16.50
2018-09-10T04:33:26.305Z,16.40
2018-09-10T04:36:01.850Z,16.40
2018-09-10T04:38:37.207Z,16.40
2018-09-10T04:41:12.698Z,16.40
2018-09-10T04:43:48.063Z,16.50
2018-09-10T04:46:23.365Z,16.50
2018-09-10T04:48:58.790Z,16.50
2018-09-10T04:51:34.508Z,16.50
2018-09-10T04:54:09.969Z,16.60
2018-09-10T04:56:46.249Z,16.60
2018-09-10T04:59:21.676Z,16.60
2018-09-10T05:01:57.089Z,16.60
2018-09-10T05:04:33.112Z,16.70
2018-09-10T05:07:08.710Z,16.70
2018-09-10T05:09:44.538Z,16.70
2018-09-10T05:12:19.964Z,16.80
2018-09-10T05:14:55.424Z,16.90
2018-09-10T05:17:30.617Z,17.00
2018-09-10T05:20:06.194Z,17.00
2018-09-10T05:22:41.540Z,17.10
2018-09-10T05:25:17.145Z,17.20
2018-09-10T05:27:52.613Z,17.30
2018-09-10T05:30:28.146Z,17.40
2018-09-10T05:33:03.729Z,17.50
2018-09-10T05:35:39.327Z,17.70
2018-09-10T05:38:14.713Z,17.70
2018-09-10T05:40:50.204Z,17.80
2018-09-10T05:43:25.704Z,17.90
2018-09-10T05:46:01.153Z,18.00
2018-09-10T05:48:36.614Z,18.10
2018-09-10T05:51:12.017Z,18.30
2018-09-10T05:53:47.533Z,18.40
2018-09-10T05:56:22.990Z,18.60
2018-09-10T05:58:58.481Z,18.80
2018-09-10T06:01:33.849Z,18.90
2018-09-10T06:04:09.334Z,18.90
2018-09-10T06:06:46.068Z,18.90
2018-09-10T06:09:22.411Z,18.90
2018-09-10T06:11:58.026Z,18.90
2018-09-10T06:14:33.405Z,18.80
2018-09-10T06:17:08.774Z,18.70
2018-09-10T06:19:43.993Z,18.70
2018-09-10T06:22:19.478Z,18.70
2018-09-10T06:24:54.735Z,18.70
2018-09-10T06:27:30.251Z,18.70
2018-09-10T06:30:06.089Z,18.70
2018-09-10T06:32:41.585Z,18.60
2018-09-10T06:35:17.065Z,18.60
2018-09-10T06:37:53.271Z,18.50
2018-09-10T06:40:28.755Z,18.40
2018-09-10T06:43:04.756Z,18.30
2018-09-10T06:45:40.171Z,18.20
2018-09-10T06:48:15.698Z,18.10
2018-09-10T06:50:51.517Z,18.10
2018-09-10T06:53:26.937Z,18.10
2018-09-10T06:56:03.449Z,18.00
2018-09-10T06:58:38.909Z,17.90
2018-09-10T07:01:14.661Z,17.80
2018-09-10T07:03:50.673Z,17.80
2018-09-10T07:06:26.241Z,17.80
2018-09-10T07:09:01.684Z,17.90
2018-09-10T07:11:37.482Z,17.90
2018-09-10T07:14:13.365Z,17.90
2018-09-10T07:16:49.159Z,18.00
2018-09-10T07:19:25.245Z,18.00
2018-09-10T07:22:00.683Z,18.00
2018-09-10T07:24:36.145Z,18.00
2018-09-10T07:27:12.401Z,18.00
2018-09-10T07:29:47.867Z,18.00
2018-09-10T07:32:23.309Z,17.90
2018-09-10T07:34:58.720Z,17.90
2018-09-10T07:37:34.049Z,17.90
2018-09-10T07:40:09.921Z,18.00
2018-09-10T07:42:45.437Z,18.10
2018-09-10T07:45:21.015Z,18.10
2018-09-10T07:47:56.445Z,18.30
2018-09-10T07:50:32.357Z,18.50
2018-09-10T07:53:07.574Z,18.70
2018-09-10T07:55:43.096Z,18.90
2018-09-10T07:58:19.160Z,19.00
2018-09-10T08:00:54.700Z,19.00
2018-09-10T08:03:30.750Z,19.00
2018-09-10T08:06:06.131Z,19.10
2018-09-10T08:08:41.968Z,19.30
2018-09-10T08:11:17.456Z,19.40
2018-09-10T08:13:52.898Z,19.50
2018-09-10T08:16:30.094Z,19.60
2018-09-10T08:19:05.309Z,19.70
2018-09-10T08:21:41.351Z,19.70
2018-09-10T08:24:16.845Z,19.60
2018-09-10T08:26:52.246Z,19.60
2018-09-10T08:29:27.542Z,19.70
2018-09-10T08:32:03.339Z,19.70
2018-09-10T08:34:38.674Z,19.80
2018-09-10T08:37:14.302Z,20.00
2018-09-10T08:39:49.688Z,20.20
2018-09-10T08:42:25.214Z,20.30
2018-09-10T08:45:00.772Z,20.50
2018-09-10T08:47:36.440Z,20.70
2018-09-10T08:50:11.651Z,21.20
2018-09-10T08:52:47.308Z,21.40
2018-09-10T08:55:23.290Z,21.50
2018-09-10T08:57:58.676Z,21.50
2018-09-10T09:00:34.925Z,21.40
2018-09-10T09:03:10.301Z,21.60
2018-09-10T09:05:45.893Z,21.90
2018-09-10T09:08:21.350Z,22.20
2018-09-10T09:10:56.830Z,22.50
2018-09-10T09:13:32.532Z,22.50
2018-09-10T09:16:07.897Z,22.50
2018-09-10T09:18:44.393Z,22.60
2018-09-10T09:21:19.676Z,22.30
2018-09-10T09:23:55.461Z,22.20
2018-09-10T09:26:30.988Z,21.90
2018-09-10T09:29:06.644Z,21.80
2018-09-10T09:31:42.154Z,21.70
2018-09-10T09:34:17.852Z,21.80
2018-09-10T09:36:58.450Z,21.90
2018-09-10T09:39:39.311Z,22.00
2018-09-10T09:42:19.906Z,22.10
2018-09-10T09:45:00.657Z,22.00
2018-09-10T09:47:36.346Z,21.80
2018-09-10T09:50:11.764Z,21.90
2018-09-10T09:52:47.156Z,21.90
2018-09-10T09:55:22.744Z,22.10
2018-09-10T09:57:58.201Z,22.10
2018-09-10T10:00:38.785Z,22.10
2018-09-10T10:03:15.278Z,22.40
2018-09-10T10:05:51.086Z,22.60
2018-09-10T10:08:26.451Z,22.70
2018-09-10T10:11:02.201Z,22.80
2018-09-10T10:13:37.775Z,22.90
2018-09-10T10:16:13.388Z,23.30
2018-09-10T10:18:48.735Z,23.40
2018-09-10T10:21:24.136Z,23.60
2018-09-10T10:23:59.827Z,23.60
2018-09-10T10:26:35.377Z,23.30
2018-09-10T10:29:10.864Z,23.20
2018-09-10T10:31:46.492Z,23.20
2018-09-10T10:34:21.835Z,23.20
2018-09-10T10:36:57.359Z,23.30
2018-09-10T10:39:32.735Z,23.40
2018-09-10T10:42:08.125Z,23.70
2018-09-10T10:44:43.569Z,23.80
2018-09-10T10:47:19.138Z,23.80
2018-09-10T10:49:54.512Z,23.90
2018-09-10T10:52:29.934Z,24.10
2018-09-10T10:55:05.433Z,24.10
2018-09-10T10:57:41.435Z,24.00
2018-09-10T11:00:16.787Z,23.50
2018-09-10T11:02:52.366Z,23.00
2018-09-10T11:05:27.736Z,22.70
2018-09-10T11:08:03.149Z,22.40
2018-09-10T11:10:38.423Z,22.30
2018-09-10T11:13:14.018Z,22.10
2018-09-10T11:15:49.527Z,22.30
2018-09-10T11:18:25.613Z,22.80
2018-09-10T11:21:01.206Z,23.20
2018-09-10T11:23:36.769Z,23.30
2018-09-10T11:26:12.092Z,23.40
2018-09-10T11:28:47.437Z,23.40
2018-09-10T11:31:23.073Z,23.50
2018-09-10T11:33:58.524Z,23.50
2018-09-10T11:36:33.969Z,23.40
2018-09-10T11:39:09.488Z,23.40
2018-09-10T11:41:44.901Z,23.40
2018-09-10T11:44:20.442Z,23.10
2018-09-10T11:47:02.994Z,23.00
2018-09-10T11:49:38.372Z,22.80
2018-09-10T11:52:13.820Z,23.00
2018-09-10T11:54:49.225Z,23.20
2018-09-10T11:57:24.597Z,23.20
2018-09-10T12:00:00.009Z,23.30
2018-09-10T12:02:35.497Z,23.40
2018-09-10T12:05:11.005Z,23.40
2018-09-10T12:07:46.302Z,23.30
2018-09-10T12:10:22.027Z,23.10
2018-09-10T12:12:57.352Z,23.10
2018-09-10T12:15:32.847Z,23.30
2018-09-10T12:18:08.358Z,23.30
2018-09-10T12:20:43.834Z,23.40
2018-09-10T12:23:19.052Z,23.50
2018-09-10T12:26:01.228Z,23.50
2018-09-10T12:28:36.566Z,23.50
2018-09-10T12:31:11.948Z,23.50
2018-09-10T12:33:47.199Z,23.60
2018-09-10T12:36:22.704Z,23.60
2018-09-10T12:38:58.066Z,23.70
2018-09-10T12:41:33.471Z,23.70
2018-09-10T12:44:09.005Z,23.70
2018-09-10T12:46:44.324Z,23.70
2018-09-10T12:49:19.657Z,23.70
2018-09-10T12:51:55.057Z,23.80
2018-09-10T12:54:30.512Z,23.80
2018-09-10T12:57:06.585Z,23.40
2018-09-10T12:59:41.881Z,23.50
2018-09-10T13:02:17.208Z,23.30
2018-09-10T13:04:52.812Z,23.30
2018-09-10T13:07:28.164Z,23.10
2018-09-10T13:10:03.615Z,23.10
2018-09-10T13:12:39.269Z,23.00
2018-09-10T13:15:14.754Z,22.90
2018-09-10T13:17:50.121Z,23.10
2018-09-10T13:20:25.281Z,23.20
2018-09-10T13:23:00.670Z,23.30
2018-09-10T13:25:36.192Z,23.40
2018-09-10T13:28:11.684Z,23.50
2018-09-10T13:30:47.179Z,23.60
2018-09-10T13:33:22.592Z,23.70
2018-09-10T13:35:58.015Z,23.60
2018-09-10T13:38:33.416Z,23.60
2018-09-10T13:41:08.814Z,23.80
2018-09-10T13:43:44.411Z,23.80
2018-09-10T13:46:19.805Z,23.80
2018-09-10T13:48:55.197Z,23.70
2018-09-10T13:51:30.692Z,23.60
2018-09-10T13:54:06.192Z,23.50
2018-09-10T13:56:41.550Z,23.30
2018-09-10T13:59:17.258Z,23.00
2018-09-10T14:01:52.576Z,22.80
2018-09-10T14:04:29.000Z,22.70
2018-09-10T14:07:04.350Z,22.50
2018-09-10T14:09:40.248Z,22.40
2018-09-10T14:12:15.773Z,22.30
2018-09-10T14:14:51.454Z,22.30
2018-09-10T14:17:26.745Z,22.20
2018-09-10T14:20:02.314Z,22.20
2018-09-10T14:22:37.669Z,22.10
2018-09-10T14:25:13.245Z,22.10
2018-09-10T14:27:48.973Z,22.00
2018-09-10T14:30:24.416Z,21.90
2018-09-10T14:33:00.953Z,21.90
2018-09-10T14:35:36.512Z,21.90
2018-09-10T14:38:11.989Z,21.80
2018-09-10T14:40:47.433Z,21.60
2018-09-10T14:43:22.922Z,21.60
2018-09-10T14:45:58.523Z,21.50
2018-09-10T14:48:33.905Z,21.50
2018-09-10T14:51:09.333Z,21.40
2018-09-10T14:53:44.763Z,21.40
2018-09-10T14:56:20.354Z,21.40
2018-09-10T14:58:55.990Z,21.30
2018-09-10T15:01:31.528Z,21.20
2018-09-10T15:04:06.981Z,21.00
2018-09-10T15:06:42.481Z,21.00
2018-09-10T15:09:24.659Z,20.90
2018-09-10T15:12:00.179Z,20.90
2018-09-10T15:14:35.770Z,20.90
2018-09-10T15:17:11.562Z,20.90
2018-09-10T15:19:46.961Z,20.90
2018-09-10T15:22:22.341Z,21.00
2018-09-10T15:24:58.005Z,21.10
2018-09-10T15:27:33.505Z,21.20
2018-09-10T15:30:09.174Z,21.20
2018-09-10T15:32:44.953Z,21.10
2018-09-10T15:35:20.164Z,21.10
2018-09-10T15:37:55.581Z,20.90
2018-09-10T15:40:31.431Z,20.90
2018-09-10T15:43:06.809Z,20.90
2018-09-10T15:45:42.206Z,20.90
2018-09-10T15:48:17.599Z,20.80
2018-09-10T15:50:52.918Z,20.80
2018-09-10T15:53:28.451Z,20.70
2018-09-10T15:56:03.916Z,20.60
2018-09-10T15:58:39.326Z,20.70
2018-09-10T16:01:14.710Z,20.60
2018-09-10T16:03:50.268Z,20.60
2018-09-10T16:06:25.589Z,20.60
2018-09-10T16:09:01.091Z,20.50
2018-09-10T16:11:36.675Z,20.30
2018-09-10T16:14:13.666Z,20.20
2018-09-10T16:16:49.263Z,20.20
2018-09-10T16:19:24.709Z,20.00
2018-09-10T16:22:00.242Z,20.00
2018-09-10T16:24:35.713Z,19.90
2018-09-10T16:27:11.216Z,19.90
2018-09-10T16:29:46.704Z,19.70
2018-09-10T16:32:22.173Z,19.70
2018-09-10T16:34:57.786Z,19.60
2018-09-10T16:37:33.285Z,19.60
2018-09-10T16:40:08.757Z,19.60
2018-09-10T16:42:45.261Z,19.60
2018-09-10T16:45:20.739Z,19.60
2018-09-10T16:47:55.976Z,19.60
2018-09-10T16:50:31.597Z,19.50
2018-09-10T16:53:06.975Z,19.40
2018-09-10T16:55:42.702Z,19.30
2018-09-10T16:58:18.072Z,19.30
2018-09-10T17:00:53.652Z,19.30
2018-09-10T17:03:29.932Z,19.20
2018-09-10T17:06:06.236Z,19.20
2018-09-10T17:08:42.575Z,19.20
2018-09-10T17:11:18.712Z,19.20
2018-09-10T17:13:54.510Z,19.10
2018-09-10T17:16:31.177Z,19.00
2018-09-10T17:19:06.513Z,19.00
2018-09-10T17:21:42.234Z,18.90
2018-09-10T17:24:17.480Z,18.90
2018-09-10T17:26:53.246Z,18.80
2018-09-10T17:29:28.758Z,18.80
2018-09-10T17:32:04.659Z,18.80
2018-09-10T17:34:40.540Z,18.70
2018-09-10T17:37:16.051Z,18.60
2018-09-10T17:39:51.514Z,18.60
2018-09-10T17:42:28.681Z,18.50
2018-09-10T17:45:04.149Z,18.50
2018-09-10T17:47:40.082Z,18.50
2018-09-10T17:50:16.221Z,18.40
2018-09-10T17:52:52.064Z,18.30
2018-09-10T17:55:28.495Z,18.20
2018-09-10T17:58:04.744Z,18.30
2018-09-10T18:00:41.553Z,18.20
2018-09-10T18:03:16.979Z,18.10
2018-09-10T18:05:52.525Z,18.10
2018-09-10T18:08:28.253Z,18.10
2018-09-10T18:11:03.840Z,18.10
2018-09-10T18:13:39.558Z,18.00
2018-09-10T18:16:15.328Z,18.00
2018-09-10T18:18:51.055Z,18.00
2018-09-10T18:21:26.653Z,18.00
2018-09-10T18:24:02.267Z,18.00
2018-09-10T18:26:37.529Z,18.00
2018-09-10T18:29:13.015Z,17.90
2018-09-10T18:31:48.437Z,17.90
2018-09-10T18:34:24.271Z,17.90
2018-09-10T18:36:59.895Z,17.90
2018-09-10T18:39:35.540Z,17.90
2018-09-10T18:42:11.025Z,17.90
2018-09-10T18:44:46.513Z,17.90
2018-09-10T18:47:21.993Z,17.90
2018-09-10T18:49:57.526Z,17.90
2018-09-10T18:52:32.891Z,17.80
2018-09-10T18:55:08.822Z,17.90
2018-09-10T18:57:44.101Z,17.90
2018-09-10T19:00:19.723Z,17.90
2018-09-10T19:02:55.249Z,17.90
2018-09-10T19:05:30.930Z,17.80
2018-09-10T19:08:06.701Z,17.80
2018-09-10T19:10:42.257Z,17.80
2018-09-10T19:13:17.513Z,17.70
2018-09-10T19:15:53.210Z,17.70
2018-09-10T19:18:33.972Z,17.70
2018-09-10T19:21:09.814Z,17.60
2018-09-10T19:23:45.337Z,17.70
2018-09-10T19:26:22.346Z,17.70
2018-09-10T19:28:57.753Z,17.70
2018-09-10T19:31:34.201Z,17.60
2018-09-10T19:34:09.574Z,17.50
2018-09-10T19:36:45.152Z,17.50
2018-09-10T19:39:21.022Z,17.40
2018-09-10T19:41:56.637Z,17.30
2018-09-10T19:44:32.509Z,17.30
2018-09-10T19:47:08.385Z,17.30
2018-09-10T19:49:43.878Z,17.20
2018-09-10T19:52:19.515Z,17.20
2018-09-10T19:54:54.902Z,17.20
2018-09-10T19:57:30.614Z,17.30
2018-09-10T20:00:06.625Z,17.30
2018-09-10T20:02:42.049Z,17.20
2018-09-10T20:05:17.557Z,17.20
2018-09-10T20:07:53.190Z,17.20
2018-09-10T20:10:28.549Z,17.10
2018-09-10T20:13:04.961Z,17.10
2018-09-10T20:15:40.961Z,17.00
2018-09-10T20:18:17.093Z,16.90
2018-09-10T20:20:52.578Z,16.90
2018-09-10T20:23:28.093Z,16.90
2018-09-10T20:26:03.420Z,16.90
2018-09-10T20:28:38.972Z,17.00
2018-09-10T20:31:14.371Z,17.00
2018-09-10T20:33:55.409Z,17.00
2018-09-10T20:36:30.631Z,17.10
2018-09-10T20:39:10.631Z,17.10
2018-09-10T20:41:45.973Z,17.10
2018-09-10T20:44:21.504Z,17.10
2018-09-10T20:46:56.851Z,17.10
2018-09-10T20:49:32.260Z,17.10
2018-09-10T20:52:08.787Z,17.00
2018-09-10T20:54:44.815Z,17.00
2018-09-10T20:57:20.236Z,17.00
2018-09-10T20:59:56.001Z,17.00
2018-09-10T21:02:31.367Z,16.90
2018-09-10T21:05:07.151Z,16.90
2018-09-10T21:07:42.711Z,16.90
2018-09-10T21:10:18.072Z,16.90
2018-09-10T21:12:53.549Z,16.90
2018-09-10T21:15:29.260Z,17.00
2018-09-10T21:18:04.761Z,16.90
2018-09-10T21:20:40.150Z,16.90
2018-09-10T21:23:15.541Z,16.90
2018-09-10T21:25:51.453Z,16.90
2018-09-10T21:28:26.751Z,16.90
2018-09-10T21:31:02.162Z,16.90
2018-09-10T21:33:37.512Z,16.90
2018-09-10T21:36:13.155Z,16.90
2018-09-10T21:38:48.723Z,16.90
2018-09-10T21:41:24.300Z,16.90
2018-09-10T21:43:59.679Z,16.90
2018-09-10T21:46:35.241Z,16.80
2018-09-10T21:49:10.749Z,16.80
2018-09-10T21:51:46.140Z,16.90
2018-09-10T21:54:21.875Z,16.80
2018-09-10T21:56:57.534Z,16.80
2018-09-10T21:59:32.937Z,16.80
2018-09-10T22:02:08.522Z,16.80
2018-09-10T22:04:44.204Z,16.70
2018-09-10T22:07:19.932Z,16.70
2018-09-10T22:09:55.489Z,16.70
2018-09-10T22:12:31.207Z,16.70
2018-09-10T22:15:06.690Z,16.70
2018-09-10T22:17:42.545Z,16.70
2018-09-10T22:20:19.317Z,16.70
2018-09-10T22:22:55.026Z,16.70
2018-09-10T22:25:30.519Z,16.70
2018-09-10T22:28:06.408Z,16.70
2018-09-10T22:30:41.855Z,16.60
2018-09-10T22:33:17.468Z,16.60
2018-09-10T22:35:52.820Z,16.60
2018-09-10T22:38:28.338Z,16.60
2018-09-10T22:41:03.864Z,16.60
2018-09-10T22:43:39.433Z,16.60
2018-09-10T22:46:15.146Z,16.60
2018-09-10T22:48:50.639Z,16.60
2018-09-10T22:51:26.099Z,16.60
2018-09-10T22:54:01.632Z,16.60
2018-09-10T22:56:37.168Z,16.60
2018-09-10T22:59:12.932Z,16.60
2018-09-10T23:01:48.414Z,16.60
2018-09-10T23:04:24.250Z,16.60
2018-09-10T23:06:59.813Z,16.50
2018-09-10T23:09:35.369Z,16.50
2018-09-10T23:12:10.841Z,16.50
2018-09-10T23:14:46.296Z,16.50
2018-09-10T23:17:21.729Z,16.60
2018-09-10T23:19:57.223Z,16.50
2018-09-10T23:22:32.409Z,16.60
2018-09-10T23:25:07.969Z,16.60
2018-09-10T23:27:43.258Z,16.60
2018-09-10T23:30:21.692Z,16.60
2018-09-10T23:32:57.149Z,16.60
2018-09-10T23:35:32.717Z,16.60
2018-09-10T23:38:08.172Z,16.60
2018-09-10T23:40:43.553Z,16.60
2018-09-10T23:43:19.023Z,16.60
2018-09-10T23:45:54.825Z,16.60
2018-09-10T23:48:30.215Z,16.50
2018-09-10T23:51:05.822Z,16.50
2018-09-10T23:53:41.081Z,16.60
2018-09-10T23:56:16.532Z,16.50
2018-09-10T23:58:51.850Z,16.50
